Charlotte, NC

2:45 AM EDT on March 28, 2017 (GMT -0400)
Charlotte | | Change Station

Elev 0 ft 35.23 °N, 80.85 °W | Updated 9 minutes ago

Overcast
Overcast
68.4 °F
Feels Like 68.4 °F
N
3.1
Wind Variable Wind from East
Gusts 6.8 mph

Today
High -- | Low -- °F
--% Chance of Precip.
Yesterday
High -- | Low -- °F
Precip. -- in
Pressure 29.93 in
Visibility 10.0 miles
Clouds Few 6000 ft
Overcast 10000 ft
Dew Point 58 °F
Humidity 68%
Rainfall Not available.
Snow Depth Not available.
7:15 AM 7:41 PM
New Moon, 0% visible
METAR KCLT 280552Z 19014KT 10SM FEW060 OVC100 19/15 A2995 RMK AO2 SLP133 LTG DSNT NW CB DSNT NW 60000 T01940150 10233 20183 58008
Pressure 29.93 in
Visibility 10.0 miles
Clouds Few 6000 ft
Overcast 10000 ft
Dew Point 58 °F
Humidity 68%
Rainfall Not available.
Snow Depth Not available.
7:15 AM 7:41 PM
New Moon, 0% visible
METAR KCLT 280552Z 19014KT 10SM FEW060 OVC100 19/15 A2995 RMK AO2 SLP133 LTG DSNT NW CB DSNT NW 60000 T01940150 10233 20183 58008

Get Severe Weather Alerts

Thanks for signing up!

Be on the lookout for a verification email in your inbox.

You'll start receiving the daily forecast at 8 AM.

×

10-Day Weather Forecast

Almanac

Astronomy

Mar. 28, 2017 Rise Set
Actual Time
Civil Twilight
Nautical Twilight
Astronomical Twilight
Moon
Length of Visible Light
Length of Day
Tomorrow will be .
, % of the Moon is Illuminated

Today's Extremes

State Highs State Lows

Community

WunderPhotos

Upload Photos

1,962,540 photos uploaded!

WunderBlog® & News

Nearby

Air Quality

  Air Quality AQ Index Pollutant
Not available.

Snow Depth

Station Depth Elevation

Earthquake Activity

City Distance Mag. Time & Date
Minimum magnitude displayed is 2.5.

Earthquake Activity

City Distance Mag. Time & Date
Minimum magnitude displayed is 2.5.

Coastal Water Temperatures

Place Temperature

Stations

Nearby Weather Stations

Station Location Temp. Windchill Dew Point Humidity Wind Precip. Elev Updated Type
                   

Watches & Warnings

There are currently no watches in effect.